Mc Kellar Sipes Regional Airport
KMKL : now visible

Airfield :











YOU CAN JOIN US ON...

 
LOGIN :

Register | Disclaimer

   EN    FR    IT 

 









Legend :    VFR   Marginal VFR   IFR   Intensive IFR   Very Intensive IFR
Visi :
Ceiling :
>= 8 km
>= 3000ft
5 to 8 km
1000 to 3000 ft
1500m to 5 km
500 to 1000 ft
800 to 1500m
200 to 500 ft
< 800m
< 200 ft
Symbols :   Thunderstorms  Fog  Heavy snow  Heavy precipitations  Wind > 20 kt






- Airport Elevation : 434 ft
- IATA code : MKL


KMKL - Mc Kellar Sipes Regional

CURRENT METAR :
  • 142019Z 25010KT 10SM OVC017 09/06 A2982 RMK AO2 T00890061

EXPIRED METARs :
  • 141953Z 26008KT 10SM OVC013 09/06 A2982 RMK AO2 SLP098 T00890061
  • 141936Z 26007KT 10SM OVC011 09/06 A2982 RMK AO2 T00890061
  • 141853Z 26007KT 10SM OVC009 09/07 A2980 RMK AO2 SLP092 T00890067
  • 141753Z 21007KT 10SM OVC009 09/07 A2981 RMK AO2 SLP095 T00890072 10094 20033 58003
  • 141735Z 22008KT 10SM OVC009 08/07 A2981 RMK AO2 T00830067

TAF KMKL
Valid from the 14 at 18:00 until the 15 at 18:00 UTC


141729Z 1418/1518 24007KT 6SM BR BKN010
TEMPO 1418/1419 OVC008
FM142000 27007KT P6SM BKN012
FM150000 33003KT P6SM BKN015
FM150600 04003KT 4SM BR OVC004
FM151500 09006KT 6SM BR BKN008



MET'MAP, your aeronautical weather chart ! - Copyright ORBIFLY December 2007 - Disclaimer

ORBIFLY MET'MAP TEAM :

Programming & Development : Alexandra Zaïnal
Concept & original design : Baudouin d'Aumeries
Assistance for programming : Marc-Olivier Méhu
Technical & hardware support : Manuel Goepfert

Contact : metmap@orbifly.com




SOURCES & CREDITS :

   NOAA       Earth
Advisory